sensor_id;sensor_type;location;lat;lon;timestamp;P1;durP1;ratioP1;P2;durP2;ratioP2
37655;SDS011;23498;50.958;3.124;2023-03-01T00:00:37;12.20;;;8.70;;
37655;SDS011;23498;50.958;3.124;2023-03-01T00:03:03;13.20;;;9.07;;
37655;SDS011;23498;50.958;3.124;2023-03-01T00:05:29;13.70;;;8.85;;
37655;SDS011;23498;50.958;3.124;2023-03-01T00:07:55;14.55;;;9.13;;
37655;SDS011;23498;50.958;3.124;2023-03-01T00:10:21;12.52;;;8.63;;
37655;SDS011;23498;50.958;3.124;2023-03-01T00:12:47;14.98;;;9.10;;
37655;SDS011;23498;50.958;3.124;2023-03-01T00:15:13;12.70;;;8.00;;
37655;SDS011;23498;50.958;3.124;2023-03-01T00:17:39;14.32;;;9.13;;
37655;SDS011;23498;50.958;3.124;2023-03-01T00:20:05;13.43;;;8.73;;
37655;SDS011;23498;50.958;3.124;2023-03-01T00:22:35;14.40;;;9.27;;
37655;SDS011;23498;50.958;3.124;2023-03-01T00:25:01;16.02;;;9.27;;
37655;SDS011;23498;50.958;3.124;2023-03-01T00:27:27;15.88;;;9.43;;
37655;SDS011;23498;50.958;3.124;2023-03-01T00:29:53;14.80;;;9.30;;
37655;SDS011;23498;50.958;3.124;2023-03-01T00:32:19;15.95;;;9.30;;
37655;SDS011;23498;50.958;3.124;2023-03-01T00:34:45;13.07;;;9.60;;
37655;SDS011;23498;50.958;3.124;2023-03-01T00:37:19;15.40;;;9.50;;
37655;SDS011;23498;50.958;3.124;2023-03-01T00:39:45;17.90;;;9.68;;
37655;SDS011;23498;50.958;3.124;2023-03-01T00:42:11;15.18;;;9.38;;
37655;SDS011;23498;50.958;3.124;2023-03-01T00:44:37;12.00;;;8.50;;
37655;SDS011;23498;50.958;3.124;2023-03-01T00:47:03;15.52;;;10.23;;
37655;SDS011;23498;50.958;3.124;2023-03-01T00:49:29;14.23;;;9.45;;
37655;SDS011;23498;50.958;3.124;2023-03-01T00:51:55;14.95;;;9.35;;
37655;SDS011;23498;50.958;3.124;2023-03-01T00:54:21;14.40;;;9.65;;
37655;SDS011;23498;50.958;3.124;2023-03-01T00:56:47;15.00;;;9.40;;
37655;SDS011;23498;50.958;3.124;2023-03-01T00:59:13;15.98;;;10.07;;
37655;SDS011;23498;50.958;3.124;2023-03-01T01:01:39;14.23;;;9.82;;
37655;SDS011;23498;50.958;3.124;2023-03-01T01:04:06;15.00;;;9.75;;
37655;SDS011;23498;50.958;3.124;2023-03-01T01:06:34;15.32;;;9.25;;
37655;SDS011;23498;50.958;3.124;2023-03-01T01:09:00;14.55;;;9.48;;
37655;SDS011;23498;50.958;3.124;2023-03-01T01:11:27;16.00;;;9.73;;
37655;SDS011;23498;50.958;3.124;2023-03-01T01:13:53;16.17;;;10.50;;
37655;SDS011;23498;50.958;3.124;2023-03-01T01:16:21;14.55;;;9.82;;
37655;SDS011;23498;50.958;3.124;2023-03-01T01:18:47;14.88;;;10.50;;
37655;SDS011;23498;50.958;3.124;2023-03-01T01:21:15;15.10;;;10.77;;
37655;SDS011;23498;50.958;3.124;2023-03-01T01:23:42;15.10;;;10.52;;
37655;SDS011;23498;50.958;3.124;2023-03-01T01:26:12;15.52;;;10.10;;
37655;SDS011;23498;50.958;3.124;2023-03-01T01:28:39;17.08;;;10.25;;
37655;SDS011;23498;50.958;3.124;2023-03-01T01:31:05;16.13;;;10.77;;
37655;SDS011;23498;50.958;3.124;2023-03-01T01:33:31;17.45;;;10.75;;
37655;SDS011;23498;50.958;3.124;2023-03-01T01:35:58;15.70;;;10.82;;
37655;SDS011;23498;50.958;3.124;2023-03-01T01:38:24;14.63;;;10.55;;
37655;SDS011;23498;50.958;3.124;2023-03-01T01:40:50;16.20;;;11.50;;
37655;SDS011;23498;50.958;3.124;2023-03-01T01:43:24;17.67;;;11.85;;
37655;SDS011;23498;50.958;3.124;2023-03-01T01:45:50;16.85;;;12.00;;
37655;SDS011;23498;50.958;3.124;2023-03-01T01:48:19;18.05;;;11.88;;
37655;SDS011;23498;50.958;3.124;2023-03-01T01:50:45;17.58;;;12.02;;
37655;SDS011;23498;50.958;3.124;2023-03-01T01:53:16;18.38;;;12.10;;
37655;SDS011;23498;50.958;3.124;2023-03-01T01:55:54;17.60;;;12.27;;
37655;SDS011;23498;50.958;3.124;2023-03-01T01:58:22;20.88;;;13.25;;
37655;SDS011;23498;50.958;3.124;2023-03-01T02:00:48;18.25;;;12.48;;
37655;SDS011;23498;50.958;3.124;2023-03-01T02:03:17;21.13;;;13.52;;
37655;SDS011;23498;50.958;3.124;2023-03-01T02:08:29;20.38;;;13.95;;
37655;SDS011;23498;50.958;3.124;2023-03-01T02:10:56;19.58;;;13.82;;
37655;SDS011;23498;50.958;3.124;2023-03-01T02:13:23;19.52;;;14.40;;
37655;SDS011;23498;50.958;3.124;2023-03-01T02:15:49;19.95;;;14.50;;
37655;SDS011;23498;50.958;3.124;2023-03-01T02:18:17;23.30;;;15.13;;
37655;SDS011;23498;50.958;3.124;2023-03-01T02:20:59;23.33;;;15.35;;
37655;SDS011;23498;50.958;3.124;2023-03-01T02:23:27;20.92;;;15.63;;
37655;SDS011;23498;50.958;3.124;2023-03-01T02:28:31;22.00;;;16.15;;
37655;SDS011;23498;50.958;3.124;2023-03-01T02:30:58;26.50;;;16.42;;
37655;SDS011;23498;50.958;3.124;2023-03-01T02:33:43;23.33;;;16.40;;
37655;SDS011;23498;50.958;3.124;2023-03-01T02:36:12;26.35;;;16.77;;
37655;SDS011;23498;50.958;3.124;2023-03-01T02:38:40;25.98;;;17.60;;
37655;SDS011;23498;50.958;3.124;2023-03-01T02:41:06;26.30;;;18.20;;
37655;SDS011;23498;50.958;3.124;2023-03-01T02:43:34;23.35;;;17.60;;
37655;SDS011;23498;50.958;3.124;2023-03-01T02:46:07;23.73;;;16.90;;
37655;SDS011;23498;50.958;3.124;2023-03-01T02:48:44;27.65;;;18.08;;
37655;SDS011;23498;50.958;3.124;2023-03-01T02:51:14;27.77;;;17.63;;
37655;SDS011;23498;50.958;3.124;2023-03-01T02:56:25;28.73;;;18.83;;
37655;SDS011;23498;50.958;3.124;2023-03-01T02:58:51;26.35;;;18.38;;
37655;SDS011;23498;50.958;3.124;2023-03-01T03:01:18;25.20;;;18.17;;
37655;SDS011;23498;50.958;3.124;2023-03-01T03:03:45;27.27;;;19.42;;
37655;SDS011;23498;50.958;3.124;2023-03-01T03:06:11;28.75;;;18.73;;
37655;SDS011;23498;50.958;3.124;2023-03-01T03:08:37;27.10;;;18.55;;
37655;SDS011;23498;50.958;3.124;2023-03-01T03:11:03;29.00;;;19.23;;
37655;SDS011;23498;50.958;3.124;2023-03-01T03:13:30;28.40;;;19.10;;
37655;SDS011;23498;50.958;3.124;2023-03-01T03:15:57;26.20;;;18.77;;
37655;SDS011;23498;50.958;3.124;2023-03-01T03:18:24;26.08;;;18.38;;
37655;SDS011;23498;50.958;3.124;2023-03-01T03:20:53;28.23;;;18.98;;
37655;SDS011;23498;50.958;3.124;2023-03-01T03:23:20;29.42;;;20.33;;
37655;SDS011;23498;50.958;3.124;2023-03-01T03:25:48;28.73;;;19.73;;
37655;SDS011;23498;50.958;3.124;2023-03-01T03:28:14;29.00;;;20.15;;
37655;SDS011;23498;50.958;3.124;2023-03-01T03:30:40;29.17;;;19.17;;
37655;SDS011;23498;50.958;3.124;2023-03-01T03:33:07;27.33;;;18.65;;
37655;SDS011;23498;50.958;3.124;2023-03-01T03:35:39;26.80;;;18.52;;
37655;SDS011;23498;50.958;3.124;2023-03-01T03:38:06;26.75;;;19.00;;
37655;SDS011;23498;50.958;3.124;2023-03-01T03:40:40;28.33;;;18.90;;
37655;SDS011;23498;50.958;3.124;2023-03-01T03:43:08;29.40;;;19.45;;
37655;SDS011;23498;50.958;3.124;2023-03-01T03:45:34;27.92;;;19.67;;
37655;SDS011;23498;50.958;3.124;2023-03-01T03:48:00;26.48;;;19.42;;
37655;SDS011;23498;50.958;3.124;2023-03-01T03:50:27;27.88;;;19.70;;
37655;SDS011;23498;50.958;3.124;2023-03-01T03:52:53;28.98;;;19.90;;
37655;SDS011;23498;50.958;3.124;2023-03-01T03:55:19;27.13;;;18.60;;
37655;SDS011;23498;50.958;3.124;2023-03-01T03:57:46;29.40;;;19.75;;
37655;SDS011;23498;50.958;3.124;2023-03-01T04:00:16;31.50;;;19.77;;
37655;SDS011;23498;50.958;3.124;2023-03-01T04:02:43;27.17;;;19.38;;
37655;SDS011;23498;50.958;3.124;2023-03-01T04:05:10;26.60;;;18.63;;
37655;SDS011;23498;50.958;3.124;2023-03-01T04:07:36;29.13;;;19.52;;
37655;SDS011;23498;50.958;3.124;2023-03-01T04:10:04;28.35;;;19.92;;
37655;SDS011;23498;50.958;3.124;2023-03-01T04:12:31;28.00;;;19.13;;
37655;SDS011;23498;50.958;3.124;2023-03-01T04:14:59;28.42;;;19.75;;
37655;SDS011;23498;50.958;3.124;2023-03-01T04:17:24;27.92;;;20.00;;
37655;SDS011;23498;50.958;3.124;2023-03-01T04:19:50;30.13;;;19.58;;
37655;SDS011;23498;50.958;3.124;2023-03-01T04:22:16;29.42;;;20.00;;
37655;SDS011;23498;50.958;3.124;2023-03-01T04:24:43;30.27;;;20.02;;
37655;SDS011;23498;50.958;3.124;2023-03-01T04:27:10;30.65;;;21.70;;
37655;SDS011;23498;50.958;3.124;2023-03-01T04:29:36;31.42;;;20.70;;
37655;SDS011;23498;50.958;3.124;2023-03-01T04:32:02;31.05;;;21.40;;
37655;SDS011;23498;50.958;3.124;2023-03-01T04:34:28;29.75;;;21.00;;
37655;SDS011;23498;50.958;3.124;2023-03-01T04:36:56;29.13;;;20.30;;
37655;SDS011;23498;50.958;3.124;2023-03-01T04:39:22;30.20;;;20.23;;
37655;SDS011;23498;50.958;3.124;2023-03-01T04:41:48;30.17;;;21.40;;
37655;SDS011;23498;50.958;3.124;2023-03-01T04:44:13;32.17;;;20.25;;
37655;SDS011;23498;50.958;3.124;2023-03-01T04:46:39;29.90;;;20.73;;
37655;SDS011;23498;50.958;3.124;2023-03-01T04:49:05;30.83;;;20.73;;
37655;SDS011;23498;50.958;3.124;2023-03-01T04:51:32;30.30;;;20.17;;
37655;SDS011;23498;50.958;3.124;2023-03-01T04:53:58;31.25;;;21.13;;
37655;SDS011;23498;50.958;3.124;2023-03-01T04:56:25;28.63;;;19.88;;
37655;SDS011;23498;50.958;3.124;2023-03-01T04:58:52;28.83;;;20.13;;
37655;SDS011;23498;50.958;3.124;2023-03-01T05:01:19;30.05;;;20.00;;
37655;SDS011;23498;50.958;3.124;2023-03-01T05:03:46;31.60;;;21.05;;
37655;SDS011;23498;50.958;3.124;2023-03-01T05:06:12;32.15;;;20.95;;
37655;SDS011;23498;50.958;3.124;2023-03-01T05:08:39;31.60;;;20.75;;
37655;SDS011;23498;50.958;3.124;2023-03-01T05:11:06;29.88;;;19.98;;
37655;SDS011;23498;50.958;3.124;2023-03-01T05:13:34;27.98;;;19.55;;
37655;SDS011;23498;50.958;3.124;2023-03-01T05:16:00;30.60;;;19.70;;
37655;SDS011;23498;50.958;3.124;2023-03-01T05:18:28;30.73;;;20.77;;
37655;SDS011;23498;50.958;3.124;2023-03-01T05:20:55;31.55;;;19.85;;
37655;SDS011;23498;50.958;3.124;2023-03-01T05:23:23;31.35;;;20.85;;
37655;SDS011;23498;50.958;3.124;2023-03-01T05:25:49;31.23;;;21.02;;
37655;SDS011;23498;50.958;3.124;2023-03-01T05:28:17;29.98;;;20.85;;
37655;SDS011;23498;50.958;3.124;2023-03-01T05:30:44;31.17;;;21.20;;
37655;SDS011;23498;50.958;3.124;2023-03-01T05:33:10;33.90;;;22.13;;
37655;SDS011;23498;50.958;3.124;2023-03-01T05:35:40;32.38;;;20.67;;
37655;SDS011;23498;50.958;3.124;2023-03-01T05:38:07;30.70;;;20.77;;
37655;SDS011;23498;50.958;3.124;2023-03-01T05:40:33;31.88;;;21.73;;
37655;SDS011;23498;50.958;3.124;2023-03-01T05:42:59;30.52;;;19.67;;
37655;SDS011;23498;50.958;3.124;2023-03-01T05:45:27;31.08;;;20.02;;
37655;SDS011;23498;50.958;3.124;2023-03-01T05:47:53;29.67;;;20.42;;
37655;SDS011;23498;50.958;3.124;2023-03-01T05:50:21;29.35;;;20.10;;
37655;SDS011;23498;50.958;3.124;2023-03-01T05:52:47;29.45;;;19.63;;
37655;SDS011;23498;50.958;3.124;2023-03-01T05:55:18;30.75;;;19.52;;
37655;SDS011;23498;50.958;3.124;2023-03-01T05:57:44;30.85;;;19.13;;
37655;SDS011;23498;50.958;3.124;2023-03-01T06:00:11;30.10;;;18.48;;
37655;SDS011;23498;50.958;3.124;2023-03-01T06:02:37;31.20;;;19.20;;
37655;SDS011;23498;50.958;3.124;2023-03-01T06:05:06;28.00;;;18.75;;
37655;SDS011;23498;50.958;3.124;2023-03-01T06:07:33;29.27;;;18.08;;
37655;SDS011;23498;50.958;3.124;2023-03-01T06:09:59;30.02;;;19.55;;
37655;SDS011;23498;50.958;3.124;2023-03-01T06:12:25;31.27;;;20.00;;
37655;SDS011;23498;50.958;3.124;2023-03-01T06:14:51;26.20;;;18.30;;
37655;SDS011;23498;50.958;3.124;2023-03-01T06:17:17;31.75;;;19.98;;
37655;SDS011;23498;50.958;3.124;2023-03-01T06:19:43;29.52;;;18.80;;
37655;SDS011;23498;50.958;3.124;2023-03-01T06:22:09;30.88;;;19.20;;
37655;SDS011;23498;50.958;3.124;2023-03-01T06:24:35;30.58;;;20.00;;
37655;SDS011;23498;50.958;3.124;2023-03-01T06:27:01;28.60;;;18.33;;
37655;SDS011;23498;50.958;3.124;2023-03-01T06:29:27;29.70;;;18.92;;
37655;SDS011;23498;50.958;3.124;2023-03-01T06:31:53;31.48;;;19.67;;
37655;SDS011;23498;50.958;3.124;2023-03-01T06:34:19;28.60;;;19.25;;
37655;SDS011;23498;50.958;3.124;2023-03-01T06:36:46;31.75;;;19.55;;
37655;SDS011;23498;50.958;3.124;2023-03-01T06:39:13;31.67;;;19.33;;
37655;SDS011;23498;50.958;3.124;2023-03-01T06:41:39;30.90;;;18.50;;
37655;SDS011;23498;50.958;3.124;2023-03-01T06:44:05;31.88;;;19.08;;
37655;SDS011;23498;50.958;3.124;2023-03-01T06:46:31;30.27;;;19.20;;
37655;SDS011;23498;50.958;3.124;2023-03-01T06:48:57;31.23;;;19.10;;
37655;SDS011;23498;50.958;3.124;2023-03-01T06:51:23;29.17;;;19.08;;
37655;SDS011;23498;50.958;3.124;2023-03-01T06:53:49;32.55;;;19.42;;
37655;SDS011;23498;50.958;3.124;2023-03-01T06:56:15;29.05;;;18.83;;
37655;SDS011;23498;50.958;3.124;2023-03-01T06:58:41;29.33;;;18.42;;
37655;SDS011;23498;50.958;3.124;2023-03-01T07:01:07;27.85;;;17.63;;
37655;SDS011;23498;50.958;3.124;2023-03-01T07:03:33;24.38;;;16.42;;
37655;SDS011;23498;50.958;3.124;2023-03-01T07:05:59;29.02;;;18.27;;
37655;SDS011;23498;50.958;3.124;2023-03-01T07:08:25;27.58;;;16.88;;
37655;SDS011;23498;50.958;3.124;2023-03-01T07:10:55;27.10;;;17.80;;
37655;SDS011;23498;50.958;3.124;2023-03-01T07:13:21;27.90;;;17.27;;
37655;SDS011;23498;50.958;3.124;2023-03-01T07:15:47;29.30;;;17.73;;
37655;SDS011;23498;50.958;3.124;2023-03-01T07:18:13;28.20;;;18.15;;
37655;SDS011;23498;50.958;3.124;2023-03-01T07:20:39;27.80;;;17.70;;
37655;SDS011;23498;50.958;3.124;2023-03-01T07:23:05;28.20;;;17.30;;
37655;SDS011;23498;50.958;3.124;2023-03-01T07:25:31;27.65;;;17.45;;
37655;SDS011;23498;50.958;3.124;2023-03-01T07:27:58;27.63;;;17.75;;
37655;SDS011;23498;50.958;3.124;2023-03-01T07:30:24;26.42;;;16.98;;
37655;SDS011;23498;50.958;3.124;2023-03-01T07:32:52;25.92;;;16.58;;
37655;SDS011;23498;50.958;3.124;2023-03-01T07:35:18;27.95;;;17.75;;
37655;SDS011;23498;50.958;3.124;2023-03-01T07:37:44;28.52;;;18.10;;
37655;SDS011;23498;50.958;3.124;2023-03-01T07:40:10;30.63;;;17.92;;
37655;SDS011;23498;50.958;3.124;2023-03-01T07:42:37;25.30;;;17.27;;
37655;SDS011;23498;50.958;3.124;2023-03-01T07:45:03;28.25;;;17.55;;
37655;SDS011;23498;50.958;3.124;2023-03-01T07:47:30;29.70;;;18.33;;
37655;SDS011;23498;50.958;3.124;2023-03-01T07:49:56;32.13;;;19.35;;
37655;SDS011;23498;50.958;3.124;2023-03-01T07:52:22;29.90;;;19.13;;
37655;SDS011;23498;50.958;3.124;2023-03-01T07:54:48;31.75;;;18.90;;
37655;SDS011;23498;50.958;3.124;2023-03-01T07:57:14;29.20;;;18.95;;
37655;SDS011;23498;50.958;3.124;2023-03-01T07:59:40;29.15;;;17.33;;
37655;SDS011;23498;50.958;3.124;2023-03-01T08:02:06;30.20;;;18.95;;
37655;SDS011;23498;50.958;3.124;2023-03-01T08:04:32;31.20;;;18.45;;
37655;SDS011;23498;50.958;3.124;2023-03-01T08:06:58;27.77;;;18.00;;
37655;SDS011;23498;50.958;3.124;2023-03-01T08:09:24;29.23;;;18.40;;
37655;SDS011;23498;50.958;3.124;2023-03-01T08:11:50;28.27;;;17.13;;
37655;SDS011;23498;50.958;3.124;2023-03-01T08:14:16;27.42;;;17.55;;
37655;SDS011;23498;50.958;3.124;2023-03-01T08:16:42;26.58;;;16.85;;
37655;SDS011;23498;50.958;3.124;2023-03-01T08:19:09;25.33;;;15.73;;
37655;SDS011;23498;50.958;3.124;2023-03-01T08:21:36;23.98;;;14.98;;
37655;SDS011;23498;50.958;3.124;2023-03-01T08:24:03;23.55;;;14.38;;
37655;SDS011;23498;50.958;3.124;2023-03-01T08:26:29;22.38;;;14.82;;
37655;SDS011;23498;50.958;3.124;2023-03-01T08:28:55;23.42;;;14.57;;
37655;SDS011;23498;50.958;3.124;2023-03-01T08:31:22;22.13;;;14.43;;
37655;SDS011;23498;50.958;3.124;2023-03-01T08:33:49;21.38;;;13.95;;
37655;SDS011;23498;50.958;3.124;2023-03-01T08:36:19;22.45;;;14.27;;
37655;SDS011;23498;50.958;3.124;2023-03-01T08:38:46;20.58;;;13.75;;
37655;SDS011;23498;50.958;3.124;2023-03-01T08:41:12;21.02;;;13.88;;
37655;SDS011;23498;50.958;3.124;2023-03-01T08:43:38;24.17;;;14.20;;
37655;SDS011;23498;50.958;3.124;2023-03-01T08:46:04;21.65;;;14.15;;
37655;SDS011;23498;50.958;3.124;2023-03-01T08:48:30;20.92;;;13.27;;
37655;SDS011;23498;50.958;3.124;2023-03-01T08:50:56;20.55;;;12.27;;
37655;SDS011;23498;50.958;3.124;2023-03-01T08:53:22;19.30;;;12.88;;
37655;SDS011;23498;50.958;3.124;2023-03-01T08:55:48;19.75;;;11.90;;
37655;SDS011;23498;50.958;3.124;2023-03-01T08:58:14;19.67;;;11.85;;
37655;SDS011;23498;50.958;3.124;2023-03-01T09:00:40;19.77;;;11.65;;
37655;SDS011;23498;50.958;3.124;2023-03-01T09:03:06;18.83;;;10.88;;
37655;SDS011;23498;50.958;3.124;2023-03-01T09:05:32;17.13;;;11.00;;
37655;SDS011;23498;50.958;3.124;2023-03-01T09:08:01;17.75;;;11.35;;
37655;SDS011;23498;50.958;3.124;2023-03-01T09:10:27;16.95;;;10.75;;
37655;SDS011;23498;50.958;3.124;2023-03-01T09:12:53;16.92;;;10.52;;
37655;SDS011;23498;50.958;3.124;2023-03-01T09:15:19;17.10;;;10.50;;
37655;SDS011;23498;50.958;3.124;2023-03-01T09:17:45;13.73;;;9.35;;
37655;SDS011;23498;50.958;3.124;2023-03-01T09:20:11;15.68;;;10.07;;
37655;SDS011;23498;50.958;3.124;2023-03-01T09:22:37;16.75;;;10.75;;
37655;SDS011;23498;50.958;3.124;2023-03-01T09:25:03;15.40;;;8.98;;
37655;SDS011;23498;50.958;3.124;2023-03-01T09:27:30;18.08;;;9.85;;
37655;SDS011;23498;50.958;3.124;2023-03-01T09:29:56;13.50;;;9.25;;
37655;SDS011;23498;50.958;3.124;2023-03-01T09:32:22;13.05;;;9.05;;
37655;SDS011;23498;50.958;3.124;2023-03-01T09:34:48;14.68;;;9.10;;
37655;SDS011;23498;50.958;3.124;2023-03-01T09:37:27;14.52;;;8.60;;
37655;SDS011;23498;50.958;3.124;2023-03-01T09:39:53;13.52;;;8.75;;
37655;SDS011;23498;50.958;3.124;2023-03-01T09:42:19;13.07;;;8.18;;
37655;SDS011;23498;50.958;3.124;2023-03-01T09:44:47;16.15;;;9.20;;
37655;SDS011;23498;50.958;3.124;2023-03-01T09:49:43;22.40;;;8.50;;
37655;SDS011;23498;50.958;3.124;2023-03-01T09:54:44;9.98;;;5.72;;
37655;SDS011;23498;50.958;3.124;2023-03-01T10:02:59;9.55;;;6.30;;
37655;SDS011;23498;50.958;3.124;2023-03-01T10:05:41;10.75;;;6.20;;
37655;SDS011;23498;50.958;3.124;2023-03-01T10:10:56;11.20;;;6.10;;
37655;SDS011;23498;50.958;3.124;2023-03-01T10:13:24;11.85;;;5.88;;
37655;SDS011;23498;50.958;3.124;2023-03-01T10:16:00;9.02;;;5.75;;
37655;SDS011;23498;50.958;3.124;2023-03-01T10:18:28;9.43;;;5.88;;
37655;SDS011;23498;50.958;3.124;2023-03-01T10:21:01;14.02;;;6.88;;
37655;SDS011;23498;50.958;3.124;2023-03-01T10:23:29;10.82;;;6.30;;
37655;SDS011;23498;50.958;3.124;2023-03-01T10:28:26;12.90;;;6.20;;
37655;SDS011;23498;50.958;3.124;2023-03-01T10:30:53;9.75;;;6.32;;
37655;SDS011;23498;50.958;3.124;2023-03-01T10:35:45;11.73;;;5.80;;
37655;SDS011;23498;50.958;3.124;2023-03-01T10:38:13;8.85;;;5.38;;
37655;SDS011;23498;50.958;3.124;2023-03-01T10:40:51;11.25;;;5.75;;
37655;SDS011;23498;50.958;3.124;2023-03-01T10:43:17;8.43;;;5.18;;
37655;SDS011;23498;50.958;3.124;2023-03-01T10:45:44;9.45;;;5.70;;
37655;SDS011;23498;50.958;3.124;2023-03-01T10:50:37;11.25;;;5.47;;
37655;SDS011;23498;50.958;3.124;2023-03-01T10:53:05;9.80;;;5.55;;
37655;SDS011;23498;50.958;3.124;2023-03-01T11:00:45;8.52;;;4.93;;
37655;SDS011;23498;50.958;3.124;2023-03-01T11:03:12;8.57;;;5.32;;
37655;SDS011;23498;50.958;3.124;2023-03-01T11:06:00;10.55;;;5.70;;
37655;SDS011;23498;50.958;3.124;2023-03-01T11:13:53;9.60;;;5.28;;
37655;SDS011;23498;50.958;3.124;2023-03-01T11:16:27;8.95;;;5.45;;
37655;SDS011;23498;50.958;3.124;2023-03-01T11:18:57;11.45;;;5.70;;
37655;SDS011;23498;50.958;3.124;2023-03-01T11:21:23;9.20;;;5.45;;
37655;SDS011;23498;50.958;3.124;2023-03-01T11:23:50;7.40;;;5.63;;
37655;SDS011;23498;50.958;3.124;2023-03-01T11:26:17;7.45;;;4.75;;
37655;SDS011;23498;50.958;3.124;2023-03-01T11:28:44;9.05;;;4.90;;
37655;SDS011;23498;50.958;3.124;2023-03-01T11:31:13;9.20;;;4.90;;
37655;SDS011;23498;50.958;3.124;2023-03-01T11:33:49;8.88;;;4.63;;
37655;SDS011;23498;50.958;3.124;2023-03-01T11:36:33;10.02;;;4.70;;
37655;SDS011;23498;50.958;3.124;2023-03-01T11:39:16;9.10;;;5.53;;
37655;SDS011;23498;50.958;3.124;2023-03-01T11:41:44;9.27;;;5.55;;
37655;SDS011;23498;50.958;3.124;2023-03-01T11:44:15;10.52;;;5.50;;
37655;SDS011;23498;50.958;3.124;2023-03-01T11:46:51;11.85;;;5.63;;
37655;SDS011;23498;50.958;3.124;2023-03-01T11:59:58;8.88;;;5.57;;
37655;SDS011;23498;50.958;3.124;2023-03-01T12:10:23;9.80;;;5.72;;
37655;SDS011;23498;50.958;3.124;2023-03-01T12:22:50;10.10;;;5.65;;
37655;SDS011;23498;50.958;3.124;2023-03-01T12:28:09;7.80;;;5.30;;
37655;SDS011;23498;50.958;3.124;2023-03-01T12:36:06;9.15;;;5.43;;
37655;SDS011;23498;50.958;3.124;2023-03-01T12:49:02;9.88;;;6.38;;
37655;SDS011;23498;50.958;3.124;2023-03-01T12:51:30;9.00;;;5.82;;
37655;SDS011;23498;50.958;3.124;2023-03-01T12:53:57;8.35;;;5.38;;
37655;SDS011;23498;50.958;3.124;2023-03-01T12:56:25;8.15;;;5.38;;
37655;SDS011;23498;50.958;3.124;2023-03-01T13:09:15;10.93;;;4.97;;
37655;SDS011;23498;50.958;3.124;2023-03-01T13:11:43;8.73;;;5.35;;
37655;SDS011;23498;50.958;3.124;2023-03-01T13:16:44;10.40;;;6.00;;
37655;SDS011;23498;50.958;3.124;2023-03-01T13:19:17;9.95;;;5.18;;
37655;SDS011;23498;50.958;3.124;2023-03-01T13:21:45;8.57;;;5.55;;
37655;SDS011;23498;50.958;3.124;2023-03-01T13:29:28;7.88;;;5.13;;
37655;SDS011;23498;50.958;3.124;2023-03-01T13:32:21;8.88;;;5.60;;
37655;SDS011;23498;50.958;3.124;2023-03-01T13:37:44;9.35;;;5.57;;
37655;SDS011;23498;50.958;3.124;2023-03-01T13:42:46;7.75;;;5.43;;
37655;SDS011;23498;50.958;3.124;2023-03-01T13:45:23;10.95;;;5.97;;
37655;SDS011;23498;50.958;3.124;2023-03-01T13:47:54;9.90;;;5.60;;
37655;SDS011;23498;50.958;3.124;2023-03-01T13:50:24;8.43;;;5.25;;
37655;SDS011;23498;50.958;3.124;2023-03-01T13:53:00;10.02;;;5.78;;
37655;SDS011;23498;50.958;3.124;2023-03-01T13:58:30;7.72;;;5.15;;
37655;SDS011;23498;50.958;3.124;2023-03-01T14:03:26;9.75;;;6.63;;
37655;SDS011;23498;50.958;3.124;2023-03-01T14:05:59;11.45;;;5.95;;
37655;SDS011;23498;50.958;3.124;2023-03-01T14:08:26;10.57;;;6.20;;
37655;SDS011;23498;50.958;3.124;2023-03-01T14:13:31;10.48;;;5.95;;
37655;SDS011;23498;50.958;3.124;2023-03-01T14:18:41;10.60;;;5.97;;
37655;SDS011;23498;50.958;3.124;2023-03-01T14:21:12;10.55;;;6.00;;
37655;SDS011;23498;50.958;3.124;2023-03-01T14:23:39;8.63;;;5.85;;
37655;SDS011;23498;50.958;3.124;2023-03-01T14:26:07;9.77;;;5.72;;
37655;SDS011;23498;50.958;3.124;2023-03-01T14:28:33;12.65;;;6.78;;
37655;SDS011;23498;50.958;3.124;2023-03-01T14:31:05;8.80;;;6.30;;
37655;SDS011;23498;50.958;3.124;2023-03-01T14:33:54;9.82;;;6.20;;
37655;SDS011;23498;50.958;3.124;2023-03-01T14:36:25;11.38;;;6.05;;
37655;SDS011;23498;50.958;3.124;2023-03-01T14:38:51;9.53;;;6.40;;
37655;SDS011;23498;50.958;3.124;2023-03-01T14:41:21;8.88;;;5.75;;
37655;SDS011;23498;50.958;3.124;2023-03-01T14:43:52;10.25;;;5.90;;
37655;SDS011;23498;50.958;3.124;2023-03-01T14:46:30;9.57;;;5.47;;
37655;SDS011;23498;50.958;3.124;2023-03-01T14:48:58;8.43;;;6.20;;
37655;SDS011;23498;50.958;3.124;2023-03-01T14:51:26;8.82;;;6.38;;
37655;SDS011;23498;50.958;3.124;2023-03-01T14:53:52;9.88;;;6.00;;
37655;SDS011;23498;50.958;3.124;2023-03-01T14:56:19;8.50;;;5.90;;
37655;SDS011;23498;50.958;3.124;2023-03-01T14:58:45;13.93;;;6.50;;
37655;SDS011;23498;50.958;3.124;2023-03-01T15:01:15;10.98;;;6.25;;
37655;SDS011;23498;50.958;3.124;2023-03-01T15:03:43;13.48;;;6.30;;
37655;SDS011;23498;50.958;3.124;2023-03-01T15:06:10;11.75;;;7.00;;
37655;SDS011;23498;50.958;3.124;2023-03-01T15:08:37;14.25;;;6.55;;
37655;SDS011;23498;50.958;3.124;2023-03-01T15:13:51;10.30;;;6.00;;
37655;SDS011;23498;50.958;3.124;2023-03-01T15:16:19;9.95;;;5.70;;
37655;SDS011;23498;50.958;3.124;2023-03-01T15:18:48;9.57;;;6.05;;
37655;SDS011;23498;50.958;3.124;2023-03-01T15:23:51;9.55;;;5.90;;
37655;SDS011;23498;50.958;3.124;2023-03-01T15:26:25;8.68;;;5.25;;
37655;SDS011;23498;50.958;3.124;2023-03-01T15:28:54;9.00;;;5.75;;
37655;SDS011;23498;50.958;3.124;2023-03-01T15:31:33;9.65;;;5.60;;
37655;SDS011;23498;50.958;3.124;2023-03-01T15:35:32;11.30;;;6.30;;
37655;SDS011;23498;50.958;3.124;2023-03-01T15:36:57;8.63;;;5.47;;
37655;SDS011;23498;50.958;3.124;2023-03-01T15:41:53;9.60;;;5.82;;
37655;SDS011;23498;50.958;3.124;2023-03-01T15:44:29;8.32;;;5.50;;
37655;SDS011;23498;50.958;3.124;2023-03-01T15:46:55;9.40;;;5.85;;
37655;SDS011;23498;50.958;3.124;2023-03-01T15:49:26;8.68;;;5.60;;
37655;SDS011;23498;50.958;3.124;2023-03-01T15:51:54;9.55;;;5.70;;
37655;SDS011;23498;50.958;3.124;2023-03-01T15:54:21;8.95;;;5.75;;
37655;SDS011;23498;50.958;3.124;2023-03-01T15:56:48;11.23;;;6.00;;
37655;SDS011;23498;50.958;3.124;2023-03-01T15:59:14;9.95;;;6.53;;
37655;SDS011;23498;50.958;3.124;2023-03-01T16:01:40;9.15;;;5.75;;
37655;SDS011;23498;50.958;3.124;2023-03-01T16:04:08;10.80;;;6.28;;
37655;SDS011;23498;50.958;3.124;2023-03-01T16:06:34;9.38;;;5.97;;
37655;SDS011;23498;50.958;3.124;2023-03-01T16:09:00;11.27;;;6.50;;
37655;SDS011;23498;50.958;3.124;2023-03-01T16:11:27;9.70;;;6.13;;
37655;SDS011;23498;50.958;3.124;2023-03-01T16:13:53;10.05;;;6.57;;
37655;SDS011;23498;50.958;3.124;2023-03-01T16:16:19;9.68;;;5.90;;
37655;SDS011;23498;50.958;3.124;2023-03-01T16:18:46;8.77;;;5.82;;
37655;SDS011;23498;50.958;3.124;2023-03-01T16:21:22;9.88;;;6.35;;
37655;SDS011;23498;50.958;3.124;2023-03-01T16:23:48;10.27;;;6.50;;
37655;SDS011;23498;50.958;3.124;2023-03-01T16:26:14;10.63;;;6.95;;
37655;SDS011;23498;50.958;3.124;2023-03-01T16:28:41;9.75;;;6.50;;
37655;SDS011;23498;50.958;3.124;2023-03-01T16:31:07;11.93;;;6.30;;
37655;SDS011;23498;50.958;3.124;2023-03-01T16:33:34;9.70;;;6.07;;
37655;SDS011;23498;50.958;3.124;2023-03-01T16:36:00;9.40;;;6.40;;
37655;SDS011;23498;50.958;3.124;2023-03-01T16:38:27;9.55;;;6.30;;
37655;SDS011;23498;50.958;3.124;2023-03-01T16:40:53;10.70;;;6.50;;
37655;SDS011;23498;50.958;3.124;2023-03-01T16:43:19;10.73;;;6.57;;